createdAt,value
2019-03-15T00:00:26.379Z,20.55
2019-03-15T00:02:55.790Z,19.50
2019-03-15T00:05:25.251Z,19.23
2019-03-15T00:07:54.699Z,18.40
2019-03-15T00:10:24.130Z,18.80
2019-03-15T00:12:53.577Z,19.10
2019-03-15T00:15:22.970Z,18.12
2019-03-15T00:17:52.367Z,18.70
2019-03-15T00:20:21.786Z,17.35
2019-03-15T00:22:51.123Z,17.90
2019-03-15T00:25:20.566Z,16.85
2019-03-15T00:27:49.991Z,17.30
2019-03-15T00:30:19.435Z,17.00
2019-03-15T00:32:48.853Z,17.73
2019-03-15T00:35:18.250Z,16.65
2019-03-15T00:37:47.716Z,16.77
2019-03-15T00:40:17.143Z,16.93
2019-03-15T00:42:46.587Z,16.40
2019-03-15T00:45:16.052Z,16.35
2019-03-15T00:47:45.491Z,16.70
2019-03-15T00:50:14.913Z,16.87
2019-03-15T00:52:44.298Z,16.67
2019-03-15T00:55:13.752Z,16.30
2019-03-15T00:57:43.163Z,16.27
2019-03-15T01:00:13.677Z,16.80
2019-03-15T01:02:44.391Z,16.50
2019-03-15T01:05:14.263Z,16.12
2019-03-15T01:07:43.716Z,15.68
2019-03-15T01:10:13.111Z,16.47
2019-03-15T01:12:42.583Z,15.78
2019-03-15T01:15:12.217Z,16.02
2019-03-15T01:17:41.621Z,16.13
2019-03-15T01:20:11.093Z,16.02
2019-03-15T01:22:40.513Z,16.65
2019-03-15T01:25:10.028Z,16.02
2019-03-15T01:27:39.491Z,15.35
2019-03-15T01:30:09.333Z,15.50
2019-03-15T01:32:38.777Z,16.65
2019-03-15T01:35:08.295Z,16.87
2019-03-15T01:37:37.741Z,16.37
2019-03-15T01:40:07.257Z,16.23
2019-03-15T01:42:36.664Z,17.30
2019-03-15T01:45:06.476Z,16.85
2019-03-15T01:47:35.879Z,17.20
2019-03-15T01:50:06.284Z,17.00
2019-03-15T01:52:35.705Z,17.15
2019-03-15T01:55:05.420Z,17.23
2019-03-15T01:57:34.913Z,17.20
2019-03-15T02:00:04.743Z,17.95
2019-03-15T02:02:34.184Z,17.73
2019-03-15T02:05:03.645Z,17.65
2019-03-15T02:07:34.581Z,17.45
2019-03-15T02:10:04.605Z,17.65
2019-03-15T02:12:34.010Z,18.00
2019-03-15T02:15:03.432Z,17.80
2019-03-15T02:17:32.832Z,18.17
2019-03-15T02:20:02.246Z,18.67
2019-03-15T02:22:31.660Z,18.35
2019-03-15T02:25:01.078Z,19.05
2019-03-15T02:27:30.539Z,19.42
2019-03-15T02:29:59.974Z,19.15
2019-03-15T02:32:29.481Z,20.30
2019-03-15T02:34:58.953Z,20.17
2019-03-15T02:37:28.373Z,19.65
2019-03-15T02:39:57.815Z,19.90
2019-03-15T02:42:27.221Z,18.62
2019-03-15T02:44:56.666Z,19.80
2019-03-15T02:47:26.097Z,20.68
2019-03-15T02:49:55.501Z,19.45
2019-03-15T02:52:24.903Z,19.90
2019-03-15T02:54:54.655Z,18.92
2019-03-15T02:57:24.202Z,20.23
2019-03-15T02:59:53.607Z,19.23
2019-03-15T03:02:23.036Z,18.40
2019-03-15T03:04:52.437Z,18.23
2019-03-15T03:07:21.876Z,19.35
2019-03-15T03:09:51.329Z,19.70
2019-03-15T03:12:20.730Z,18.92
2019-03-15T03:14:50.131Z,18.73
2019-03-15T03:17:19.561Z,19.52
2019-03-15T03:19:48.991Z,18.60
2019-03-15T03:22:18.445Z,19.02
2019-03-15T03:24:47.861Z,18.85
2019-03-15T03:27:17.308Z,18.48
2019-03-15T03:29:47.037Z,17.37
2019-03-15T03:32:16.777Z,18.17
2019-03-15T03:34:46.290Z,17.42
2019-03-15T03:37:15.599Z,17.73
2019-03-15T03:39:45.060Z,17.62
2019-03-15T03:42:14.499Z,17.80
2019-03-15T03:44:43.908Z,17.62
2019-03-15T03:47:13.368Z,17.25
2019-03-15T03:49:42.785Z,19.45
2019-03-15T03:52:12.237Z,16.15
2019-03-15T03:54:41.623Z,17.25
2019-03-15T03:57:11.040Z,17.55
2019-03-15T03:59:40.453Z,18.27
2019-03-15T04:02:09.862Z,17.87
2019-03-15T04:04:39.419Z,17.98
2019-03-15T04:07:08.859Z,18.20
2019-03-15T04:09:38.254Z,17.20
2019-03-15T04:12:07.693Z,16.42
2019-03-15T04:14:37.123Z,17.07
2019-03-15T04:17:06.573Z,16.37
2019-03-15T04:19:35.988Z,16.00
2019-03-15T04:22:05.462Z,16.20
2019-03-15T04:24:34.903Z,17.42
2019-03-15T04:27:04.350Z,17.05
2019-03-15T04:29:33.786Z,16.67
2019-03-15T04:32:03.217Z,16.05
2019-03-15T04:34:32.656Z,17.15
2019-03-15T04:37:02.089Z,16.60
2019-03-15T04:39:31.560Z,15.93
2019-03-15T04:42:00.991Z,16.10
2019-03-15T04:44:30.408Z,17.17
2019-03-15T04:46:59.888Z,17.05
2019-03-15T04:49:29.287Z,16.52
2019-03-15T04:51:58.727Z,17.25
2019-03-15T04:54:28.155Z,16.97
2019-03-15T04:56:57.565Z,17.70
2019-03-15T04:59:27.024Z,18.87
2019-03-15T05:01:56.452Z,16.95
2019-03-15T05:04:25.892Z,17.30
2019-03-15T05:06:55.472Z,17.67
2019-03-15T05:09:24.941Z,17.42
2019-03-15T05:11:54.364Z,17.82
2019-03-15T05:14:23.872Z,17.73
2019-03-15T05:16:53.327Z,17.23
2019-03-15T05:19:22.816Z,16.80
2019-03-15T05:21:52.231Z,17.82
2019-03-15T05:24:21.698Z,18.10
2019-03-15T05:26:51.141Z,17.67
2019-03-15T05:29:20.616Z,18.35
2019-03-15T05:31:50.024Z,17.90
2019-03-15T05:34:19.414Z,17.92
2019-03-15T05:36:48.905Z,18.00
2019-03-15T05:39:18.356Z,17.57
2019-03-15T05:41:47.868Z,17.05
2019-03-15T05:44:17.310Z,18.25
2019-03-15T05:46:46.791Z,18.92
2019-03-15T05:49:16.224Z,18.00
2019-03-15T05:51:45.624Z,18.42
2019-03-15T05:54:15.048Z,19.80
2019-03-15T05:56:44.488Z,19.60
2019-03-15T05:59:14.030Z,19.75
2019-03-15T06:01:43.490Z,19.12
2019-03-15T06:04:12.948Z,18.32
2019-03-15T06:06:42.376Z,19.05
2019-03-15T06:09:11.838Z,18.45
2019-03-15T06:11:41.262Z,18.05
2019-03-15T06:14:10.680Z,17.00
2019-03-15T06:16:40.106Z,20.77
2019-03-15T06:19:09.589Z,18.07
2019-03-15T06:21:39.016Z,17.45
2019-03-15T06:24:08.460Z,14.98
2019-03-15T06:26:38.000Z,15.45
2019-03-15T06:29:07.340Z,14.68
2019-03-15T06:31:36.862Z,12.75
2019-03-15T06:34:06.276Z,14.78
2019-03-15T06:36:35.768Z,13.63
2019-03-15T06:39:07.865Z,14.15
2019-03-15T06:41:37.830Z,12.40
2019-03-15T06:44:07.369Z,12.50
2019-03-15T06:46:36.793Z,13.13
2019-03-15T06:49:06.220Z,14.07
2019-03-15T06:51:35.700Z,13.27
2019-03-15T06:54:11.276Z,14.18
2019-03-15T06:56:36.354Z,13.23
2019-03-15T06:59:05.762Z,12.60
2019-03-15T07:01:35.185Z,13.50
2019-03-15T07:04:04.669Z,13.28
2019-03-15T07:06:34.152Z,13.20
2019-03-15T07:09:04.178Z,13.25
2019-03-15T07:11:33.635Z,14.60
2019-03-15T07:14:03.091Z,12.43
2019-03-15T07:16:32.539Z,14.15
2019-03-15T07:19:03.163Z,16.00
2019-03-15T07:21:32.743Z,14.07
2019-03-15T07:24:02.349Z,11.38
2019-03-15T07:26:31.787Z,12.15
2019-03-15T07:29:01.198Z,12.40
2019-03-15T07:31:30.661Z,12.05
2019-03-15T07:34:00.094Z,10.28
2019-03-15T07:36:29.517Z,11.10
2019-03-15T07:38:59.010Z,11.95
2019-03-15T07:41:28.415Z,10.75
2019-03-15T07:43:57.897Z,11.65
2019-03-15T07:46:27.341Z,10.60
2019-03-15T07:48:56.777Z,10.13
2019-03-15T07:51:26.212Z,10.58
2019-03-15T07:53:55.643Z,11.12
2019-03-15T07:56:25.049Z,10.55
2019-03-15T07:58:54.804Z,9.20
2019-03-15T08:01:24.232Z,10.30
2019-03-15T08:03:53.751Z,10.97
2019-03-15T08:06:34.146Z,10.98
2019-03-15T08:08:54.248Z,11.20
2019-03-15T08:11:23.733Z,9.08
2019-03-15T08:13:53.193Z,9.85
2019-03-15T08:16:22.643Z,10.45
2019-03-15T08:18:52.054Z,9.20
2019-03-15T08:21:22.698Z,8.48
2019-03-15T08:23:52.347Z,7.87
2019-03-15T08:26:21.827Z,9.20
2019-03-15T08:28:51.230Z,9.20
2019-03-15T08:31:23.181Z,9.70
2019-03-15T08:33:51.701Z,9.67
2019-03-15T08:36:21.192Z,9.65
2019-03-15T08:38:50.551Z,11.03
2019-03-15T08:41:20.017Z,10.75
2019-03-15T08:43:49.413Z,9.55
2019-03-15T08:46:18.906Z,10.80
2019-03-15T08:48:48.351Z,12.28
2019-03-15T08:51:17.768Z,11.93
2019-03-15T08:53:47.263Z,12.37
2019-03-15T08:56:16.768Z,9.68
2019-03-15T08:58:46.242Z,13.53
2019-03-15T09:01:15.700Z,12.68
2019-03-15T09:03:45.155Z,13.22
2019-03-15T09:06:14.639Z,8.30
2019-03-15T09:08:44.085Z,12.98
2019-03-15T09:11:12.945Z,9.65
2019-03-15T09:13:41.829Z,12.88
2019-03-15T09:16:10.764Z,12.03
2019-03-15T09:18:39.673Z,13.98
2019-03-15T09:21:08.529Z,10.53
2019-03-15T09:23:38.114Z,10.93
2019-03-15T09:26:10.322Z,11.80
2019-03-15T09:28:38.636Z,12.47
2019-03-15T09:31:08.058Z,9.70
2019-03-15T09:33:37.449Z,4.85
2019-03-15T09:36:06.976Z,10.58
2019-03-15T09:38:35.792Z,8.13
2019-03-15T09:41:05.304Z,11.50
2019-03-15T09:43:34.707Z,12.40
2019-03-15T09:46:04.472Z,12.50
2019-03-15T09:48:33.912Z,13.53
2019-03-15T09:51:03.355Z,12.23
2019-03-15T09:53:32.814Z,12.65
2019-03-15T09:56:02.250Z,14.60
2019-03-15T09:58:31.680Z,15.48
2019-03-15T10:01:01.309Z,13.38
2019-03-15T10:03:30.928Z,14.70
2019-03-15T10:06:13.983Z,14.87
2019-03-15T10:08:31.668Z,15.00
2019-03-15T10:11:01.132Z,8.95
2019-03-15T10:13:30.674Z,11.18
2019-03-15T10:16:00.166Z,12.13
2019-03-15T10:18:29.741Z,9.78
2019-03-15T10:20:59.211Z,12.07
2019-03-15T10:23:28.650Z,11.40
2019-03-15T10:25:58.060Z,8.58
2019-03-15T10:28:27.480Z,12.45
2019-03-15T10:30:56.950Z,12.78
2019-03-15T10:33:26.419Z,11.97
2019-03-15T10:35:56.020Z,11.35
2019-03-15T10:38:25.462Z,11.48
2019-03-15T10:40:54.909Z,16.10
2019-03-15T10:43:24.340Z,13.05
2019-03-15T10:45:53.772Z,14.30
2019-03-15T10:48:25.603Z,12.65
2019-03-15T10:50:54.428Z,14.23
2019-03-15T10:53:23.936Z,13.65
2019-03-15T10:56:00.236Z,11.70
2019-03-15T10:58:24.585Z,12.05
2019-03-15T11:00:54.153Z,12.53
2019-03-15T11:03:23.505Z,13.35
2019-03-15T11:05:52.993Z,19.90
2019-03-15T11:08:24.244Z,15.80
2019-03-15T11:10:52.456Z,12.95
2019-03-15T11:13:21.350Z,12.90
2019-03-15T11:15:50.251Z,12.05
2019-03-15T11:18:19.253Z,11.83
2019-03-15T11:20:48.916Z,12.07
2019-03-15T11:23:18.333Z,10.40
2019-03-15T11:25:47.235Z,9.43
2019-03-15T11:28:16.653Z,9.08
2019-03-15T11:30:45.526Z,6.27
2019-03-15T11:33:14.861Z,6.83
2019-03-15T11:35:43.639Z,8.18
2019-03-15T11:38:13.077Z,9.00
2019-03-15T11:40:42.570Z,7.53
2019-03-15T11:43:12.048Z,8.10
2019-03-15T11:45:40.996Z,33.00
2019-03-15T11:48:10.522Z,7.87
2019-03-15T11:50:39.429Z,7.17
2019-03-15T11:53:08.956Z,7.70
2019-03-15T11:55:38.417Z,6.72
2019-03-15T11:58:07.899Z,6.47
2019-03-15T12:00:36.722Z,6.17
2019-03-15T12:03:06.265Z,5.22
2019-03-15T12:05:35.161Z,4.12
2019-03-15T12:08:04.582Z,46.75
2019-03-15T12:10:33.980Z,3.90
2019-03-15T12:13:02.869Z,2.80
2019-03-15T12:15:31.736Z,3.50
2019-03-15T12:18:01.135Z,3.20
2019-03-15T12:20:30.672Z,3.35
2019-03-15T12:23:00.128Z,33.97
2019-03-15T12:25:31.411Z,2.98
2019-03-15T12:28:00.733Z,9.58
2019-03-15T12:30:29.653Z,2.83
2019-03-15T12:32:59.094Z,2.75
2019-03-15T12:35:28.643Z,2.27
2019-03-15T12:37:58.061Z,2.35
2019-03-15T12:40:26.969Z,2.05
2019-03-15T12:42:55.884Z,2.00
2019-03-15T12:45:24.692Z,2.22
2019-03-15T12:48:03.413Z,1.89
2019-03-15T12:50:32.594Z,2.22
2019-03-15T12:53:02.330Z,3.17
2019-03-15T12:55:31.160Z,3.02
2019-03-15T12:58:00.654Z,3.30
2019-03-15T13:00:29.463Z,3.45
2019-03-15T13:02:59.032Z,4.12
2019-03-15T13:05:28.470Z,4.60
2019-03-15T13:07:57.287Z,4.62
2019-03-15T13:10:26.752Z,6.30
2019-03-15T13:12:56.224Z,6.75
2019-03-15T13:15:25.748Z,5.90
2019-03-15T13:17:55.205Z,5.62
2019-03-15T13:20:24.624Z,4.40
2019-03-15T13:22:54.094Z,2.90
2019-03-15T13:25:23.696Z,13.13
2019-03-15T13:27:53.204Z,4.37
2019-03-15T13:30:22.028Z,4.10
2019-03-15T13:32:50.929Z,4.10
2019-03-15T13:35:19.850Z,3.70
2019-03-15T13:37:49.306Z,3.30
2019-03-15T13:40:18.846Z,2.98
2019-03-15T13:42:47.738Z,2.47
2019-03-15T13:45:17.330Z,3.75
2019-03-15T13:47:46.216Z,2.60
2019-03-15T13:50:15.108Z,2.60
2019-03-15T13:52:44.620Z,3.40
2019-03-15T13:55:14.084Z,2.90
2019-03-15T13:57:42.893Z,3.00
2019-03-15T14:00:12.952Z,3.17
2019-03-15T14:02:42.410Z,3.65
2019-03-15T14:05:12.195Z,4.10
2019-03-15T14:07:41.632Z,4.78
2019-03-15T14:10:11.420Z,5.70
2019-03-15T14:12:40.950Z,7.33
2019-03-15T14:15:11.589Z,9.30
2019-03-15T14:17:41.276Z,9.98
2019-03-15T14:20:11.096Z,9.50
2019-03-15T14:22:40.576Z,11.00
2019-03-15T14:25:11.226Z,11.57
2019-03-15T14:27:40.664Z,12.73
2019-03-15T14:30:11.283Z,13.75
2019-03-15T14:32:40.765Z,15.68
2019-03-15T14:35:10.300Z,13.68
2019-03-15T14:37:39.812Z,15.28
2019-03-15T14:40:09.564Z,15.30
2019-03-15T14:42:39.070Z,13.38
2019-03-15T14:45:09.990Z,10.50
2019-03-15T14:47:39.407Z,9.65
2019-03-15T14:50:08.923Z,8.83
2019-03-15T14:52:38.451Z,9.58
2019-03-15T14:55:08.076Z,9.98
2019-03-15T14:57:50.468Z,10.23
2019-03-15T15:00:11.215Z,11.93
2019-03-15T15:02:40.891Z,12.75
2019-03-15T15:05:11.515Z,12.00
2019-03-15T15:07:41.000Z,19.65
2019-03-15T15:10:10.873Z,11.80
2019-03-15T15:12:40.325Z,12.35
2019-03-15T15:15:11.447Z,11.43
2019-03-15T15:17:41.271Z,11.78
2019-03-15T15:20:11.025Z,11.28
2019-03-15T15:22:40.481Z,10.20
2019-03-15T15:25:10.007Z,9.18
2019-03-15T15:27:39.456Z,9.23
2019-03-15T15:30:09.532Z,10.00
2019-03-15T15:32:39.005Z,9.38
2019-03-15T15:35:07.853Z,9.80
2019-03-15T15:37:37.283Z,9.95
2019-03-15T15:40:07.781Z,8.33
2019-03-15T15:42:36.627Z,8.10
2019-03-15T15:45:06.309Z,8.33
2019-03-15T15:47:35.761Z,9.18
2019-03-15T15:50:05.241Z,9.23
2019-03-15T15:52:36.756Z,8.55
2019-03-15T15:55:06.409Z,8.58
2019-03-15T15:57:35.834Z,8.63
2019-03-15T16:00:06.099Z,10.40
2019-03-15T16:02:35.593Z,7.28
2019-03-15T16:05:08.463Z,6.90
2019-03-15T16:07:36.530Z,8.00
2019-03-15T16:10:07.322Z,9.23
2019-03-15T16:12:36.761Z,9.17
2019-03-15T16:15:07.003Z,8.85
2019-03-15T16:17:36.514Z,7.58
2019-03-15T16:20:06.075Z,7.10
2019-03-15T16:22:35.532Z,7.62
2019-03-15T16:25:05.120Z,8.63
2019-03-15T16:27:34.712Z,7.85
2019-03-15T16:30:06.094Z,7.15
2019-03-15T16:32:35.592Z,6.78
2019-03-15T16:35:05.246Z,7.42
2019-03-15T16:37:34.686Z,7.22
2019-03-15T16:40:04.707Z,6.22
2019-03-15T16:42:34.128Z,6.83
2019-03-15T16:45:03.542Z,5.70
2019-03-15T16:47:34.677Z,6.37
2019-03-15T16:50:09.491Z,7.70
2019-03-15T16:52:40.002Z,5.62
2019-03-15T16:55:11.077Z,5.12
2019-03-15T16:57:41.858Z,5.40
2019-03-15T17:00:12.784Z,5.90
2019-03-15T17:02:43.388Z,5.15
2019-03-15T17:05:13.211Z,5.42
2019-03-15T17:07:42.659Z,6.72
2019-03-15T17:10:12.131Z,6.25
2019-03-15T17:12:41.541Z,6.70
2019-03-15T17:15:12.410Z,7.65
2019-03-15T17:17:41.928Z,5.85
2019-03-15T17:20:11.591Z,6.25
2019-03-15T17:22:41.172Z,6.97
2019-03-15T17:25:11.646Z,7.35
2019-03-15T17:27:41.091Z,7.65
2019-03-15T17:30:12.186Z,8.53
2019-03-15T17:32:41.673Z,153.72
2019-03-15T17:35:11.646Z,8.65
2019-03-15T17:37:41.292Z,13.05
2019-03-15T17:40:11.994Z,13.93
2019-03-15T17:42:41.523Z,9.50
2019-03-15T17:45:11.253Z,10.25
2019-03-15T17:47:40.665Z,9.68
2019-03-15T17:50:13.523Z,8.83
2019-03-15T17:52:42.941Z,9.60
2019-03-15T17:55:12.569Z,11.78
2019-03-15T17:57:45.364Z,10.10
2019-03-15T18:00:22.716Z,25.43
2019-03-15T18:02:52.374Z,9.58
2019-03-15T18:05:21.806Z,13.25
2019-03-15T18:07:51.367Z,10.20
2019-03-15T18:10:20.814Z,20.48
2019-03-15T18:12:50.219Z,13.08
2019-03-15T18:15:20.011Z,8.50
2019-03-15T18:17:49.451Z,8.23
2019-03-15T18:20:18.962Z,8.58
2019-03-15T18:22:48.378Z,8.50
2019-03-15T18:25:17.895Z,11.03
2019-03-15T18:27:47.941Z,9.30
2019-03-15T18:30:17.426Z,20.45
2019-03-15T18:32:46.854Z,45.30
2019-03-15T18:35:16.302Z,16.65
2019-03-15T18:37:45.744Z,9.10
2019-03-15T18:40:15.317Z,8.53
2019-03-15T18:42:44.923Z,20.35
2019-03-15T18:45:14.392Z,29.65
2019-03-15T18:47:43.951Z,7.57
2019-03-15T18:50:16.958Z,20.57
2019-03-15T18:52:46.405Z,8.20
2019-03-15T18:55:15.875Z,35.25
2019-03-15T18:57:45.280Z,11.40
2019-03-15T19:00:17.337Z,8.38
2019-03-15T19:02:46.872Z,11.40
2019-03-15T19:05:16.532Z,19.55
2019-03-15T19:07:45.945Z,19.25
2019-03-15T19:10:15.761Z,17.23
2019-03-15T19:12:45.239Z,11.68
2019-03-15T19:15:15.029Z,13.60
2019-03-15T19:17:44.459Z,30.27
2019-03-15T19:20:14.282Z,15.03
2019-03-15T19:22:43.702Z,16.37
2019-03-15T19:25:13.442Z,23.22
2019-03-15T19:27:42.871Z,21.42
2019-03-15T19:30:12.878Z,14.87
2019-03-15T19:32:42.368Z,17.25
2019-03-15T19:35:11.973Z,17.42
2019-03-15T19:37:41.575Z,125.25
2019-03-15T19:40:12.436Z,202.05
2019-03-15T19:42:44.782Z,120.33
2019-03-15T19:45:13.529Z,83.78
2019-03-15T19:47:43.064Z,46.68
2019-03-15T19:50:13.778Z,15.20
2019-03-15T19:52:43.321Z,13.70
2019-03-15T19:55:13.248Z,15.43
2019-03-15T19:57:42.746Z,16.03
2019-03-15T20:00:13.942Z,59.93
2019-03-15T20:02:43.401Z,24.23
2019-03-15T20:05:12.387Z,15.18
2019-03-15T20:07:42.189Z,10.70
2019-03-15T20:10:16.058Z,13.05
2019-03-15T20:12:43.121Z,13.00
2019-03-15T20:15:12.059Z,11.60
2019-03-15T20:17:41.588Z,14.67
2019-03-15T20:20:11.583Z,18.92
2019-03-15T20:22:40.443Z,11.25
2019-03-15T20:25:11.687Z,23.57
2019-03-15T20:27:41.208Z,14.93
2019-03-15T20:30:21.325Z,47.70
2019-03-15T20:32:44.810Z,44.13
2019-03-15T20:35:13.861Z,13.28
2019-03-15T20:37:43.419Z,24.18
2019-03-15T20:40:12.937Z,36.58
2019-03-15T20:42:42.464Z,31.83
2019-03-15T20:45:13.096Z,15.63
2019-03-15T20:47:42.556Z,64.77
2019-03-15T20:50:12.882Z,92.22
2019-03-15T20:52:42.363Z,77.60
2019-03-15T20:55:11.888Z,90.40
2019-03-15T20:57:41.323Z,38.70
2019-03-15T21:00:12.799Z,57.70
2019-03-15T21:02:41.659Z,38.35
2019-03-15T21:05:11.090Z,86.00
2019-03-15T21:07:43.323Z,40.15
2019-03-15T21:10:11.792Z,35.20
2019-03-15T21:12:41.233Z,66.28
2019-03-15T21:15:11.545Z,59.23
2019-03-15T21:17:41.713Z,35.30
2019-03-15T21:20:11.904Z,46.58
2019-03-15T21:22:41.348Z,69.37
2019-03-15T21:25:10.254Z,52.53
2019-03-15T21:27:52.487Z,118.97
2019-03-15T21:30:13.204Z,20.12
2019-03-15T21:32:42.606Z,32.00
2019-03-15T21:35:10.737Z,27.93
2019-03-15T21:37:40.141Z,13.22
2019-03-15T21:40:10.407Z,14.30
2019-03-15T21:42:39.809Z,15.95
2019-03-15T21:45:09.455Z,19.17
2019-03-15T21:47:38.925Z,14.13
2019-03-15T21:50:10.001Z,19.67
2019-03-15T21:52:38.872Z,16.13
2019-03-15T21:55:08.314Z,15.60
2019-03-15T21:57:37.776Z,12.10
2019-03-15T22:00:08.309Z,21.65
2019-03-15T22:02:37.757Z,11.18
2019-03-15T22:05:07.459Z,13.10
2019-03-15T22:07:36.377Z,27.15
2019-03-15T22:10:06.351Z,17.05
2019-03-15T22:12:35.222Z,12.35
2019-03-15T22:15:07.104Z,13.88
2019-03-15T22:17:35.134Z,15.15
2019-03-15T22:20:04.016Z,15.38
2019-03-15T22:22:32.843Z,14.17
2019-03-15T22:25:01.800Z,15.63
2019-03-15T22:27:30.697Z,12.33
2019-03-15T22:30:00.408Z,9.85
2019-03-15T22:32:29.339Z,10.80
2019-03-15T22:34:58.490Z,20.30
2019-03-15T22:37:28.089Z,13.72
2019-03-15T22:39:57.052Z,11.25
2019-03-15T22:42:26.559Z,11.68
2019-03-15T22:44:55.444Z,10.57
2019-03-15T22:47:24.647Z,10.77
2019-03-15T22:49:53.485Z,8.43
2019-03-15T22:52:23.290Z,12.45
2019-03-15T22:54:52.721Z,9.13
2019-03-15T22:57:21.568Z,12.98
2019-03-15T22:59:50.961Z,11.97
2019-03-15T23:02:19.995Z,15.13
2019-03-15T23:04:48.814Z,11.95
2019-03-15T23:07:17.814Z,9.48
2019-03-15T23:09:47.285Z,13.15
2019-03-15T23:12:16.941Z,17.37
2019-03-15T23:14:46.355Z,13.38
2019-03-15T23:17:15.287Z,10.08
2019-03-15T23:19:44.170Z,10.53
2019-03-15T23:22:12.940Z,6.10
2019-03-15T23:24:41.885Z,10.28
2019-03-15T23:27:11.317Z,8.53
2019-03-15T23:29:40.323Z,3.52
2019-03-15T23:32:09.804Z,4.53
2019-03-15T23:34:39.228Z,4.47
2019-03-15T23:37:08.661Z,4.93
2019-03-15T23:39:38.296Z,4.75
2019-03-15T23:42:07.799Z,6.22
2019-03-15T23:44:36.686Z,6.03
2019-03-15T23:47:06.306Z,8.10
2019-03-15T23:49:35.776Z,5.80
2019-03-15T23:52:05.653Z,6.80
2019-03-15T23:54:35.077Z,6.12
2019-03-15T23:57:04.908Z,12.43
2019-03-15T23:59:34.362Z,5.08
